createdAt,value
2019-05-01T00:00:20.818Z,82.67
2019-05-01T00:02:51.251Z,73.23
2019-05-01T00:05:21.643Z,75.47
2019-05-01T00:07:50.433Z,84.43
2019-05-01T00:10:21.551Z,85.27
2019-05-01T00:12:50.566Z,91.13
2019-05-01T00:15:22.449Z,88.93
2019-05-01T00:17:51.258Z,92.00
2019-05-01T00:20:20.201Z,97.43
2019-05-01T00:22:49.050Z,91.60
2019-05-01T00:25:17.971Z,94.80
2019-05-01T00:27:46.965Z,107.00
2019-05-01T00:30:29.340Z,95.00
2019-05-01T00:32:48.530Z,90.77
2019-05-01T00:35:17.489Z,82.60
2019-05-01T00:37:46.445Z,91.33
2019-05-01T00:40:16.617Z,88.77
2019-05-01T00:42:45.768Z,89.13
2019-05-01T00:45:15.549Z,89.27
2019-05-01T00:47:44.415Z,86.83
2019-05-01T00:50:15.910Z,93.17
2019-05-01T00:52:44.885Z,82.57
2019-05-01T00:55:15.891Z,93.83
2019-05-01T00:57:46.395Z,96.10
2019-05-01T01:00:16.968Z,87.67
2019-05-01T01:02:47.418Z,90.57
2019-05-01T01:05:17.141Z,92.50
2019-05-01T01:07:45.947Z,92.53
2019-05-01T01:10:15.624Z,101.63
2019-05-01T01:12:44.727Z,90.37
2019-05-01T01:15:14.328Z,97.00
2019-05-01T01:17:43.181Z,87.17
2019-05-01T01:20:12.344Z,93.23
2019-05-01T01:22:41.310Z,92.93
2019-05-01T01:25:10.538Z,91.23
2019-05-01T01:27:39.428Z,96.30
2019-05-01T01:30:09.416Z,91.07
2019-05-01T01:32:39.836Z,88.33
2019-05-01T01:35:09.104Z,95.53
2019-05-01T01:37:38.080Z,91.90
2019-05-01T01:40:08.790Z,104.00
2019-05-01T01:42:38.715Z,98.03
2019-05-01T01:45:08.034Z,104.60
2019-05-01T01:47:38.547Z,101.77
2019-05-01T01:50:08.202Z,109.47
2019-05-01T01:52:37.128Z,110.43
2019-05-01T01:55:06.519Z,110.23
2019-05-01T01:57:37.907Z,114.00
2019-05-01T02:00:09.297Z,130.40
2019-05-01T02:02:39.722Z,129.87
2019-05-01T02:05:10.085Z,140.13
2019-05-01T02:07:39.193Z,151.47
2019-05-01T02:10:09.537Z,144.77
2019-05-01T02:12:39.440Z,147.00
2019-05-01T02:15:08.671Z,139.83
2019-05-01T02:17:39.188Z,145.10
2019-05-01T02:20:08.789Z,143.83
2019-05-01T02:22:37.785Z,136.97
2019-05-01T02:25:08.687Z,143.10
2019-05-01T02:27:40.548Z,140.73
2019-05-01T02:30:11.057Z,133.30
2019-05-01T02:32:42.102Z,135.07
2019-05-01T02:35:11.509Z,137.67
2019-05-01T02:37:40.807Z,129.80
2019-05-01T02:40:12.489Z,125.13
2019-05-01T02:42:42.511Z,134.97
2019-05-01T02:45:11.525Z,138.13
2019-05-01T02:47:43.675Z,125.83
2019-05-01T02:50:14.645Z,136.07
2019-05-01T02:52:44.580Z,123.73
2019-05-01T02:55:15.578Z,126.33
2019-05-01T02:57:45.440Z,131.90
2019-05-01T03:00:15.590Z,134.17
2019-05-01T03:02:44.601Z,135.40
2019-05-01T03:05:13.407Z,137.77
2019-05-01T03:07:43.030Z,141.93
2019-05-01T03:10:12.185Z,139.17
2019-05-01T03:12:43.788Z,135.13
2019-05-01T03:15:13.349Z,135.40
2019-05-01T03:17:46.465Z,135.57
2019-05-01T03:20:16.965Z,140.03
2019-05-01T03:22:47.689Z,144.10
2019-05-01T03:25:16.888Z,148.00
2019-05-01T03:27:45.816Z,139.13
2019-05-01T03:30:15.805Z,137.10
2019-05-01T03:32:44.685Z,142.13
2019-05-01T03:35:13.775Z,129.60
2019-05-01T03:37:42.753Z,133.00
2019-05-01T03:40:12.410Z,149.10
2019-05-01T03:48:28.643Z,125.70
2019-05-01T03:50:59.999Z,128.63
2019-05-01T03:53:29.335Z,143.27
2019-05-01T03:55:58.252Z,185.03
2019-05-01T03:58:27.394Z,152.93
2019-05-01T04:00:57.952Z,132.13
2019-05-01T04:03:28.304Z,134.37
2019-05-01T04:05:57.088Z,131.20
2019-05-01T04:08:25.953Z,127.57
2019-05-01T04:10:55.903Z,134.47
2019-05-01T04:13:25.214Z,123.73
2019-05-01T04:15:54.863Z,133.70
2019-05-01T04:18:24.302Z,132.57
2019-05-01T04:20:53.351Z,132.33
2019-05-01T04:23:22.191Z,118.90
2019-05-01T04:25:50.961Z,138.47
2019-05-01T04:28:21.355Z,123.73
2019-05-01T04:30:52.375Z,129.60
2019-05-01T04:33:21.538Z,142.00
2019-05-01T04:35:52.025Z,104.73
2019-05-01T04:38:20.803Z,85.20
2019-05-01T04:40:49.780Z,100.30
2019-05-01T04:43:18.722Z,129.87
2019-05-01T04:45:48.274Z,114.53
2019-05-01T04:48:18.837Z,157.57
2019-05-01T04:50:48.302Z,165.47
2019-05-01T04:53:18.017Z,256.00
2019-05-01T04:55:47.209Z,173.70
2019-05-01T04:58:16.126Z,169.03
2019-05-01T05:00:44.915Z,126.37
2019-05-01T05:03:15.220Z,97.10
2019-05-01T05:05:44.284Z,119.57
2019-05-01T05:08:13.361Z,135.10
2019-05-01T05:10:42.237Z,115.80
2019-05-01T05:13:11.023Z,110.63
2019-05-01T05:15:42.163Z,110.57
2019-05-01T05:18:10.917Z,101.90
2019-05-01T05:20:40.033Z,120.07
2019-05-01T05:23:08.841Z,167.10
2019-05-01T05:25:38.104Z,129.83
2019-05-01T05:28:11.235Z,156.70
2019-05-01T05:30:42.011Z,117.37
2019-05-01T05:33:18.145Z,159.13
2019-05-01T05:35:43.763Z,122.13
2019-05-01T05:38:15.865Z,109.10
2019-05-01T05:40:45.564Z,118.27
2019-05-01T05:43:14.510Z,142.50
2019-05-01T05:45:43.395Z,126.13
2019-05-01T05:48:12.660Z,120.70
2019-05-01T05:50:46.237Z,124.27
2019-05-01T05:53:19.380Z,128.20
2019-05-01T05:55:52.789Z,112.90
2019-05-01T05:58:25.882Z,112.90
2019-05-01T06:00:58.819Z,137.43
2019-05-01T06:03:34.914Z,120.20
2019-05-01T06:06:05.800Z,136.43
2019-05-01T06:08:37.371Z,112.53
2019-05-01T06:11:07.390Z,118.50
2019-05-01T06:13:38.438Z,104.47
2019-05-01T06:16:12.373Z,89.97
2019-05-01T06:18:40.965Z,95.27
2019-05-01T06:21:13.025Z,105.50
2019-05-01T06:23:44.584Z,93.47
2019-05-01T06:26:14.908Z,93.10
2019-05-01T06:28:43.852Z,93.73
2019-05-01T06:31:17.779Z,100.03
2019-05-01T06:33:48.581Z,117.87
2019-05-01T06:36:15.368Z,116.47
2019-05-01T06:38:44.712Z,109.83
2019-05-01T06:41:14.432Z,99.67
2019-05-01T06:43:43.754Z,98.20
2019-05-01T06:46:13.332Z,109.90
2019-05-01T06:48:48.829Z,80.37
2019-05-01T06:51:18.945Z,90.27
2019-05-01T06:53:48.700Z,91.90
2019-05-01T06:56:17.852Z,92.30
2019-05-01T06:58:51.064Z,80.70
2019-05-01T07:01:18.820Z,87.83
2019-05-01T07:04:02.836Z,90.50
2019-05-01T07:06:18.853Z,89.43
2019-05-01T07:08:47.742Z,88.77
2019-05-01T07:11:16.724Z,86.10
2019-05-01T07:13:47.160Z,87.67
2019-05-01T07:16:15.987Z,77.60
2019-05-01T07:18:44.774Z,75.57
2019-05-01T07:21:13.531Z,71.27
2019-05-01T07:23:42.349Z,76.63
2019-05-01T07:26:13.643Z,67.50
2019-05-01T07:28:43.456Z,75.10
2019-05-01T07:31:13.786Z,80.93
2019-05-01T07:33:47.048Z,69.37
2019-05-01T07:36:16.441Z,70.63
2019-05-01T07:38:45.900Z,71.37
2019-05-01T07:41:14.693Z,77.07
2019-05-01T07:43:45.439Z,79.90
2019-05-01T07:46:18.373Z,71.00
2019-05-01T07:48:46.987Z,80.27
2019-05-01T07:51:16.324Z,73.80
2019-05-01T07:53:45.570Z,81.57
2019-05-01T07:56:17.077Z,72.83
2019-05-01T07:58:47.452Z,74.10
2019-05-01T08:01:18.352Z,72.47
2019-05-01T08:03:47.908Z,68.70
2019-05-01T08:06:21.864Z,68.83
2019-05-01T08:08:47.217Z,70.27
2019-05-01T08:11:16.008Z,62.80
2019-05-01T08:13:44.793Z,67.07
2019-05-01T08:16:13.743Z,65.27
2019-05-01T08:18:44.109Z,62.10
2019-05-01T08:21:14.582Z,68.03
2019-05-01T08:23:47.243Z,62.40
2019-05-01T08:26:13.844Z,55.40
2019-05-01T08:28:44.256Z,56.47
2019-05-01T08:31:14.529Z,55.23
2019-05-01T08:33:49.713Z,57.37
2019-05-01T08:36:15.539Z,61.40
2019-05-01T08:38:44.397Z,54.53
2019-05-01T08:41:13.239Z,55.17
2019-05-01T08:43:42.064Z,61.67
2019-05-01T08:46:16.447Z,60.00
2019-05-01T08:48:44.423Z,52.83
2019-05-01T08:51:13.280Z,52.63
2019-05-01T08:53:42.108Z,54.80
2019-05-01T08:56:10.922Z,55.23
2019-05-01T08:58:39.774Z,65.50
2019-05-01T09:01:10.800Z,64.63
2019-05-01T09:03:39.227Z,58.30
2019-05-01T09:06:08.099Z,58.57
2019-05-01T09:08:36.875Z,55.67
2019-05-01T09:11:05.693Z,57.20
2019-05-01T09:13:34.621Z,50.73
2019-05-01T09:16:03.483Z,51.73
2019-05-01T09:18:32.282Z,45.40
2019-05-01T09:21:01.117Z,44.73
2019-05-01T09:23:29.897Z,49.67
2019-05-01T09:25:59.687Z,46.17
2019-05-01T09:28:30.061Z,50.37
2019-05-01T09:31:02.230Z,50.57
2019-05-01T09:33:32.050Z,59.20
2019-05-01T09:36:00.997Z,54.43
2019-05-01T09:38:29.840Z,57.57
2019-05-01T09:40:58.833Z,56.20
2019-05-01T09:43:30.934Z,52.20
2019-05-01T09:45:58.105Z,52.80
2019-05-01T09:48:26.962Z,58.27
2019-05-01T09:51:00.892Z,52.10
2019-05-01T09:53:29.733Z,50.27
2019-05-01T09:56:03.298Z,52.13
2019-05-01T09:58:31.909Z,51.77
2019-05-01T10:01:00.918Z,51.93
2019-05-01T10:03:29.778Z,52.33
2019-05-01T10:05:58.600Z,49.80
2019-05-01T10:08:27.361Z,52.03
2019-05-01T10:10:59.955Z,54.40
2019-05-01T10:13:26.657Z,48.23
2019-05-01T10:15:55.431Z,53.53
2019-05-01T10:18:24.347Z,49.97
2019-05-01T10:20:53.187Z,51.53
2019-05-01T10:23:22.001Z,55.83
2019-05-01T10:25:52.347Z,54.23
2019-05-01T10:28:22.759Z,59.10
2019-05-01T10:30:53.357Z,51.10
2019-05-01T10:33:23.714Z,50.77
2019-05-01T10:35:53.387Z,45.63
2019-05-01T10:38:22.293Z,49.33
2019-05-01T10:40:51.167Z,51.37
2019-05-01T10:43:19.916Z,51.40
2019-05-01T10:45:48.678Z,46.27
2019-05-01T10:48:17.557Z,55.30
2019-05-01T10:50:46.381Z,52.80
2019-05-01T10:53:15.222Z,50.67
2019-05-01T10:55:44.042Z,57.37
2019-05-01T10:58:17.862Z,52.03
2019-05-01T11:00:44.990Z,56.17
2019-05-01T11:03:13.957Z,52.40
2019-05-01T11:05:55.356Z,49.93
2019-05-01T11:08:14.820Z,50.60
2019-05-01T11:10:43.902Z,48.43
2019-05-01T11:13:12.675Z,50.33
2019-05-01T11:15:41.573Z,48.77
2019-05-01T11:18:10.408Z,54.77
2019-05-01T11:20:39.230Z,47.57
2019-05-01T11:23:08.077Z,47.93
2019-05-01T11:25:36.968Z,47.57
2019-05-01T11:28:05.966Z,51.50
2019-05-01T11:30:34.753Z,47.77
2019-05-01T11:33:05.077Z,49.10
2019-05-01T11:35:35.445Z,47.07
2019-05-01T11:38:05.875Z,45.90
2019-05-01T11:40:36.344Z,43.40
2019-05-01T11:43:05.102Z,48.03
2019-05-01T11:45:33.921Z,45.07
2019-05-01T11:48:02.875Z,43.53
2019-05-01T11:50:31.621Z,46.20
2019-05-01T11:53:00.494Z,38.37
2019-05-01T11:55:29.426Z,44.27
2019-05-01T11:57:58.270Z,46.60
2019-05-01T12:00:27.164Z,43.40
2019-05-01T12:02:55.969Z,44.43
2019-05-01T12:05:24.731Z,43.70
2019-05-01T12:07:53.660Z,47.43
2019-05-01T12:10:22.492Z,41.33
2019-05-01T12:12:51.327Z,44.53
2019-05-01T12:15:20.608Z,41.60
2019-05-01T12:17:50.516Z,40.67
2019-05-01T12:20:20.224Z,46.73
2019-05-01T12:22:51.384Z,42.23
2019-05-01T12:25:19.486Z,39.00
2019-05-01T12:27:48.428Z,42.90
2019-05-01T12:30:18.071Z,42.00
2019-05-01T12:32:46.857Z,37.77
2019-05-01T12:35:16.049Z,41.83
2019-05-01T12:37:44.965Z,40.60
2019-05-01T12:40:15.971Z,39.77
2019-05-01T12:42:44.941Z,42.47
2019-05-01T12:45:14.616Z,41.83
2019-05-01T12:47:45.039Z,40.67
2019-05-01T12:50:14.232Z,42.33
2019-05-01T12:52:43.960Z,41.20
2019-05-01T12:55:14.287Z,41.00
2019-05-01T12:57:43.217Z,38.53
2019-05-01T13:00:15.018Z,47.13
2019-05-01T13:02:43.821Z,40.93
2019-05-01T13:05:12.663Z,43.30
2019-05-01T13:07:41.745Z,43.20
2019-05-01T13:10:11.152Z,43.20
2019-05-01T13:12:39.890Z,40.57
2019-05-01T13:15:09.842Z,40.60
2019-05-01T13:17:38.687Z,50.10
2019-05-01T13:20:09.006Z,44.60
2019-05-01T13:22:37.839Z,43.10
2019-05-01T13:25:07.860Z,45.23
2019-05-01T13:27:38.177Z,40.83
2019-05-01T13:30:11.346Z,43.57
2019-05-01T13:32:41.681Z,45.23
2019-05-01T13:35:10.776Z,39.83
2019-05-01T13:37:39.819Z,49.87
2019-05-01T13:40:12.728Z,48.63
2019-05-01T13:42:41.570Z,46.43
2019-05-01T13:45:10.845Z,44.63
2019-05-01T13:47:39.672Z,49.60
2019-05-01T13:50:09.326Z,49.10
2019-05-01T13:52:38.724Z,49.37
2019-05-01T13:55:08.198Z,52.73
2019-05-01T13:57:37.227Z,51.40
2019-05-01T14:00:08.056Z,58.00
2019-05-01T14:02:36.984Z,59.33
2019-05-01T14:05:06.380Z,57.97
2019-05-01T14:07:35.173Z,60.27
2019-05-01T14:10:04.607Z,57.17
2019-05-01T14:12:33.335Z,58.10
2019-05-01T14:15:02.157Z,59.53
2019-05-01T14:17:30.834Z,63.50
2019-05-01T14:20:01.191Z,66.40
2019-05-01T14:22:31.450Z,71.60
2019-05-01T14:25:01.807Z,59.47
2019-05-01T14:27:30.704Z,62.30
2019-05-01T14:29:59.482Z,69.63
2019-05-01T14:32:28.285Z,67.30
2019-05-01T14:34:57.136Z,63.60
2019-05-01T14:37:29.726Z,65.50
2019-05-01T14:39:56.587Z,63.87
2019-05-01T14:42:25.383Z,63.17
2019-05-01T14:44:54.115Z,68.43
2019-05-01T14:47:22.868Z,63.10
2019-05-01T14:49:51.748Z,64.57
2019-05-01T14:52:20.546Z,58.53
2019-05-01T14:54:49.511Z,58.57
2019-05-01T14:57:18.360Z,71.40
2019-05-01T14:59:47.075Z,63.20
2019-05-01T15:02:15.930Z,63.50
2019-05-01T15:04:44.677Z,64.43
2019-05-01T15:07:13.553Z,60.37
2019-05-01T15:09:42.339Z,51.83
2019-05-01T15:12:11.077Z,57.00
2019-05-01T15:14:40.810Z,64.83
2019-05-01T15:17:11.265Z,60.93
2019-05-01T15:19:41.524Z,60.23
2019-05-01T15:22:10.390Z,66.70
2019-05-01T15:24:39.140Z,61.87
2019-05-01T15:27:07.913Z,59.80
2019-05-01T15:29:37.742Z,61.43
2019-05-01T15:32:06.614Z,60.70
2019-05-01T15:34:35.370Z,68.20
2019-05-01T15:37:07.303Z,60.73
2019-05-01T15:39:37.527Z,62.97
2019-05-01T15:42:07.908Z,61.97
2019-05-01T15:44:38.282Z,59.37
2019-05-01T15:47:07.189Z,58.03
2019-05-01T15:49:36.174Z,56.67
2019-05-01T15:52:05.217Z,59.63
2019-05-01T15:54:34.100Z,52.00
2019-05-01T15:57:02.842Z,53.87
2019-05-01T15:59:31.658Z,55.80
2019-05-01T16:02:00.414Z,56.17
2019-05-01T16:04:29.726Z,58.37
2019-05-01T16:06:58.572Z,55.23
2019-05-01T16:09:27.466Z,50.17
2019-05-01T16:11:57.776Z,58.60
2019-05-01T16:14:26.616Z,62.30
2019-05-01T16:16:55.448Z,55.20
2019-05-01T16:19:24.457Z,54.93
2019-05-01T16:21:53.377Z,52.57
2019-05-01T16:24:22.244Z,53.80
2019-05-01T16:26:51.061Z,50.80
2019-05-01T16:29:19.848Z,59.13
2019-05-01T16:31:48.746Z,52.93
2019-05-01T16:34:17.511Z,53.10
2019-05-01T16:36:46.468Z,51.40
2019-05-01T16:39:15.296Z,53.77
2019-05-01T16:41:45.991Z,62.37
2019-05-01T16:44:15.007Z,57.10
2019-05-01T16:46:43.885Z,54.43
2019-05-01T16:49:12.833Z,53.37
2019-05-01T16:51:41.973Z,56.40
2019-05-01T16:54:11.028Z,56.20
2019-05-01T16:56:39.883Z,50.47
2019-05-01T16:59:08.778Z,56.80
2019-05-01T17:01:39.105Z,62.63
2019-05-01T17:04:09.417Z,58.53
2019-05-01T17:06:39.806Z,54.10
2019-05-01T17:09:11.676Z,58.33
2019-05-01T17:11:40.941Z,60.50
2019-05-01T17:14:09.938Z,63.20
2019-05-01T17:16:38.957Z,67.03
2019-05-01T17:19:08.919Z,64.33
2019-05-01T17:21:37.787Z,66.40
2019-05-01T17:24:06.756Z,59.43
2019-05-01T17:26:35.573Z,59.20
2019-05-01T17:29:04.713Z,60.70
2019-05-01T17:31:33.769Z,68.60
2019-05-01T17:34:02.679Z,59.07
2019-05-01T17:36:31.821Z,57.17
2019-05-01T17:39:00.836Z,64.70
2019-05-01T17:41:35.602Z,66.13
2019-05-01T17:44:04.680Z,64.30
2019-05-01T17:46:33.846Z,66.73
2019-05-01T17:49:04.077Z,70.63
2019-05-01T17:51:33.343Z,64.97
2019-05-01T17:54:02.125Z,59.97
2019-05-01T17:56:31.085Z,74.27
2019-05-01T17:58:59.973Z,64.57
2019-05-01T18:01:33.181Z,64.03
2019-05-01T18:04:02.399Z,68.73
2019-05-01T18:06:32.783Z,70.93
2019-05-01T18:09:03.278Z,65.20
2019-05-01T18:11:32.556Z,66.60
2019-05-01T18:14:01.349Z,67.23
2019-05-01T18:16:30.355Z,72.37
2019-05-01T18:18:59.160Z,74.00
2019-05-01T18:21:28.262Z,71.13
2019-05-01T18:23:58.704Z,69.73
2019-05-01T18:26:31.710Z,69.20
2019-05-01T18:29:05.855Z,69.53
2019-05-01T18:31:33.133Z,78.30
2019-05-01T18:34:04.170Z,69.20
2019-05-01T18:36:34.405Z,67.33
2019-05-01T18:39:15.863Z,75.73
2019-05-01T18:41:36.979Z,101.63
2019-05-01T18:44:10.192Z,78.60
2019-05-01T18:46:36.507Z,69.87
2019-05-01T18:49:05.545Z,76.30
2019-05-01T18:51:36.263Z,73.30
2019-05-01T18:54:05.472Z,99.00
2019-05-01T18:56:38.101Z,75.13
2019-05-01T18:59:05.575Z,84.43
2019-05-01T19:01:34.559Z,85.23
2019-05-01T19:04:03.777Z,91.00
2019-05-01T19:06:41.149Z,76.20
2019-05-01T19:09:14.673Z,83.30
2019-05-01T19:11:36.447Z,88.27
2019-05-01T19:14:05.480Z,83.70
2019-05-01T19:16:34.290Z,94.10
2019-05-01T19:19:04.104Z,89.50
2019-05-01T19:21:33.423Z,94.60
2019-05-01T19:24:02.513Z,89.50
2019-05-01T19:26:33.014Z,83.87
2019-05-01T19:29:01.909Z,80.63
2019-05-01T19:31:30.752Z,79.87
2019-05-01T19:33:59.793Z,76.07
2019-05-01T19:36:40.294Z,83.30
2019-05-01T19:39:11.784Z,78.00
2019-05-01T19:41:43.615Z,83.40
2019-05-01T19:44:13.967Z,79.50
2019-05-01T19:46:42.084Z,87.03
2019-05-01T19:49:11.553Z,85.53
2019-05-01T19:51:40.430Z,81.20
2019-05-01T19:54:09.557Z,92.53
2019-05-01T19:56:38.645Z,87.23
2019-05-01T19:59:07.674Z,85.60
2019-05-01T20:01:38.423Z,94.93
2019-05-01T20:04:08.480Z,86.80
2019-05-01T20:06:39.951Z,88.37
2019-05-01T20:09:09.613Z,87.47
2019-05-01T20:11:38.662Z,95.10
2019-05-01T20:14:07.658Z,99.50
2019-05-01T20:16:36.669Z,115.43
2019-05-01T20:19:07.611Z,100.83
2019-05-01T20:21:36.600Z,124.93
2019-05-01T20:24:09.253Z,113.27
2019-05-01T20:26:36.594Z,99.27
2019-05-01T20:29:07.791Z,98.27
2019-05-01T20:31:36.015Z,101.77
2019-05-01T20:34:11.973Z,92.60
2019-05-01T20:36:53.462Z,102.43
2019-05-01T20:39:19.021Z,99.20
2019-05-01T20:41:48.667Z,99.77
2019-05-01T20:44:23.390Z,109.73
2019-05-01T20:46:58.584Z,98.83
2019-05-01T20:49:28.809Z,101.93
2019-05-01T20:51:57.583Z,104.73
2019-05-01T20:54:26.386Z,98.57
2019-05-01T20:56:56.662Z,99.83
2019-05-01T20:59:25.567Z,105.20
2019-05-01T21:01:54.556Z,98.00
2019-05-01T21:04:26.480Z,100.90
2019-05-01T21:06:56.884Z,106.87
2019-05-01T21:09:29.299Z,130.30
2019-05-01T21:12:05.541Z,121.63
2019-05-01T21:14:31.322Z,108.93
2019-05-01T21:17:13.694Z,109.83
2019-05-01T21:19:45.173Z,117.57
2019-05-01T21:22:14.361Z,103.10
2019-05-01T21:24:53.268Z,127.03
2019-05-01T21:27:24.258Z,114.63
2019-05-01T21:32:46.710Z,127.40
2019-05-01T21:35:15.562Z,127.83
2019-05-01T21:37:44.425Z,109.80
2019-05-01T21:40:14.110Z,106.13
2019-05-01T21:42:42.938Z,122.10
2019-05-01T21:45:12.721Z,115.43
2019-05-01T21:47:42.632Z,108.23
2019-05-01T21:50:13.287Z,122.93
2019-05-01T21:52:43.739Z,103.10
2019-05-01T21:55:12.852Z,97.93
2019-05-01T21:57:42.569Z,110.07
2019-05-01T22:00:11.561Z,100.10
2019-05-01T22:02:41.600Z,105.07
2019-05-01T22:05:11.549Z,94.40
2019-05-01T22:07:41.465Z,89.37
2019-05-01T22:10:11.072Z,104.57
2019-05-01T22:12:44.017Z,97.23
2019-05-01T22:15:12.455Z,101.50
2019-05-01T22:17:42.097Z,85.50
2019-05-01T22:20:12.751Z,74.00
2019-05-01T22:22:44.061Z,78.40
2019-05-01T22:25:15.047Z,87.73
2019-05-01T22:27:45.227Z,83.27
2019-05-01T22:30:16.103Z,76.90
2019-05-01T22:32:46.425Z,94.27
2019-05-01T22:35:17.150Z,84.60
2019-05-01T22:37:46.909Z,95.90
2019-05-01T22:40:17.668Z,91.80
2019-05-01T22:42:46.508Z,86.10
2019-05-01T22:45:18.091Z,92.33
2019-05-01T22:47:50.787Z,82.50
2019-05-01T22:50:17.718Z,83.67
2019-05-01T22:52:46.472Z,77.63
2019-05-01T22:55:20.320Z,83.60
2019-05-01T22:57:47.563Z,80.20
2019-05-01T23:00:20.664Z,91.03
2019-05-01T23:02:49.539Z,72.00
2019-05-01T23:05:18.309Z,83.00
2019-05-01T23:07:47.110Z,80.03
2019-05-01T23:10:16.231Z,73.43
2019-05-01T23:12:44.973Z,77.47
2019-05-01T23:15:15.401Z,73.40
2019-05-01T23:17:46.056Z,83.77
2019-05-01T23:20:16.676Z,79.23
2019-05-01T23:22:45.469Z,76.07
2019-05-01T23:25:14.888Z,73.33
2019-05-01T23:27:43.713Z,71.57
2019-05-01T23:30:15.063Z,67.50
2019-05-01T23:32:44.068Z,73.17
2019-05-01T23:35:13.212Z,75.90
2019-05-01T23:37:41.957Z,64.60
2019-05-01T23:40:15.531Z,69.87
2019-05-01T23:42:51.999Z,65.17
2019-05-01T23:45:15.008Z,68.37
2019-05-01T23:47:43.947Z,69.00
2019-05-01T23:50:13.075Z,70.67
2019-05-01T23:52:41.934Z,74.43
2019-05-01T23:55:10.895Z,72.33
2019-05-01T23:57:39.667Z,84.43
